Terminal Aerodrome Forecast
Issued by NWS Wilmington, OH

Home | Current Version | Previous Version | Text Only | Print | Product List | Glossary On
Versions: 1 2 3 4 5 6 7 8 9 10 11 12 13 14 15 16 17 18 19 20 21
894
FTUS41 KILN 141139
TAFILN
TAF
KILN 141139Z 1412/1512 34010KT P6SM BKN025
     FM141800 35006KT P6SM BKN035
     FM142300 35005KT P6SM SCT035 BKN200
     FM150200 VRB03KT P6SM OVC150=

USA.gov is the U.S. government's official web portal to all federal, state and local government web resources and services.